Time;durP1;ratioP1;P1;durP2;ratioP2;P2;SDS_P1;SDS_P2;PMS_P1;PMS_P2;Temp;Humidity;BMP_temperature;BMP_pressure;BME280_temperature;BME280_humidity;BME280_pressure;Samples;Min_cycle;Max_cycle;Signal;HPM_P1;HPM_P2
2022/05/01 00:01:40;;;;;;;13.50;10.20;;;;;;;9.01;78.82;102290.44;4803398;29;20081;-67
2022/05/01 00:04:06;;;;;;;13.95;10.77;;;;;;;9.04;79.60;102288.22;4816534;29;20490;-67
2022/05/01 00:06:32;;;;;;;14.95;11.18;;;;;;;9.07;78.76;102284.31;4824225;29;20177;-66
2022/05/01 00:08:58;;;;;;;17.00;11.43;;;;;;;9.07;79.13;102286.19;4813961;29;20030;-67
2022/05/01 00:11:24;;;;;;;12.02;10.75;;;;;;;9.10;79.27;102291.22;4805961;29;20470;-67
2022/05/01 00:13:50;;;;;;;14.55;10.77;;;;;;;9.09;78.63;102289.53;4813902;29;20197;-67
2022/05/01 00:16:15;;;;;;;16.38;11.13;;;;;;;9.09;78.64;102287.69;4805985;29;20070;-67
2022/05/01 00:18:41;;;;;;;14.15;11.07;;;;;;;9.08;78.53;102282.47;4805020;29;20050;-67
2022/05/01 00:21:07;;;;;;;13.00;9.65;;;;;;;9.04;78.35;102288.22;4805555;29;20492;-67
2022/05/01 00:23:32;;;;;;;16.00;11.27;;;;;;;9.10;78.74;102285.81;4805394;29;20075;-67
2022/05/01 00:25:59;;;;;;;14.18;10.98;;;;;;;9.11;78.61;102290.22;4805546;29;20026;-66
2022/05/01 00:28:24;;;;;;;14.38;10.80;;;;;;;9.13;78.54;102288.16;4819469;29;20140;-66
2022/05/01 00:30:50;;;;;;;13.63;11.00;;;;;;;9.12;79.68;102289.16;4806410;29;20543;-66
2022/05/01 00:38:43;;;;;;;13.45;10.75;;;;;;;9.12;80.05;102286.47;4808222;29;20133;-66
2022/05/01 00:41:08;;;;;;;13.45;11.32;;;;;;;9.08;79.57;102285.16;4823846;29;20117;-67
2022/05/01 00:44:04;;;;;;;16.30;11.15;;;;;;;9.05;79.04;102287.19;4823439;29;20083;-67
2022/05/01 00:46:31;;;;;;;15.00;11.35;;;;;;;8.97;79.30;102287.25;4823841;29;20369;-66
2022/05/01 00:49:00;;;;;;;13.30;11.02;;;;;;;8.94;79.26;102279.53;4818705;29;20073;-66
2022/05/01 00:51:29;;;;;;;15.50;11.38;;;;;;;8.98;79.77;102278.16;4805495;29;20039;-66
2022/05/01 00:53:54;;;;;;;15.02;11.35;;;;;;;9.01;78.81;102275.09;4805346;29;20027;-66
2022/05/01 00:56:20;;;;;;;15.18;11.90;;;;;;;9.06;80.19;102271.84;4807646;29;20125;-67
2022/05/01 00:58:46;;;;;;;14.80;12.25;;;;;;;9.07;79.22;102275.38;4806439;29;20373;-66
2022/05/01 01:01:13;;;;;;;18.52;11.75;;;;;;;9.14;79.69;102273.66;4785974;29;20170;-66
2022/05/01 01:03:39;;;;;;;13.95;11.43;;;;;;;9.10;81.09;102277.72;4787402;30;20126;-67
2022/05/01 01:06:05;;;;;;;14.90;11.55;;;;;;;9.12;79.09;102264.88;4787274;29;20096;-67
2022/05/01 01:08:30;;;;;;;15.65;11.75;;;;;;;9.11;79.81;102266.75;4786871;30;20066;-66
2022/05/01 01:10:56;;;;;;;15.57;11.98;;;;;;;9.12;80.17;102270.25;4801036;29;20026;-67
2022/05/01 01:13:26;;;;;;;14.63;11.43;;;;;;;9.07;78.95;102272.69;4820196;29;20035;-67
2022/05/01 01:15:52;;;;;;;16.60;11.85;;;;;;;9.08;78.66;102269.81;4805063;29;20060;-66
2022/05/01 01:18:17;;;;;;;15.95;11.25;;;;;;;9.08;78.89;102258.16;4805631;29;20067;-66
2022/05/01 01:20:43;;;;;;;14.65;11.20;;;;;;;9.03;78.75;102266.81;4822727;29;20109;-66
2022/05/01 01:23:08;;;;;;;17.98;11.65;;;;;;;8.96;78.48;102261.28;4823472;29;20038;-67
2022/05/01 01:25:33;;;;;;;16.65;11.52;;;;;;;8.95;79.04;102265.00;4823034;29;20069;-67
2022/05/01 01:28:05;;;;;;;15.90;11.38;;;;;;;8.91;78.71;102265.53;4806709;29;20038;-66
2022/05/01 01:33:16;;;;;;;18.30;10.93;;;;;;;8.84;79.05;102262.72;4814750;29;20080;-67
2022/05/01 01:35:45;;;;;;;16.60;12.00;;;;;;;8.80;79.43;102264.94;4806653;29;20035;-67
2022/05/01 01:38:10;;;;;;;16.02;11.65;;;;;;;8.81;79.79;102263.06;4819836;29;20039;-66
2022/05/01 01:40:54;;;;;;;15.48;11.82;;;;;;;8.81;79.39;102268.47;4821365;29;20031;-66
2022/05/01 01:43:27;;;;;;;16.35;12.23;;;;;;;8.81;80.08;102263.06;4822967;29;20083;-66
2022/05/01 01:45:56;;;;;;;15.13;12.05;;;;;;;8.82;80.14;102264.75;4804664;29;20479;-66
2022/05/01 01:48:22;;;;;;;15.95;12.35;;;;;;;8.79;80.82;102265.94;4788605;29;20087;-66
2022/05/01 01:51:03;;;;;;;16.38;11.93;;;;;;;8.77;79.69;102256.34;4804202;29;20064;-67
2022/05/01 01:53:30;;;;;;;17.38;12.60;;;;;;;8.72;81.39;102264.16;4811141;29;20046;-67
2022/05/01 01:55:57;;;;;;;15.85;12.57;;;;;;;8.67;80.26;102265.50;4825379;29;20049;-67
2022/05/01 01:58:23;;;;;;;16.95;12.32;;;;;;;8.59;80.96;102259.31;4826025;29;20486;-66
2022/05/01 02:00:48;;;;;;;14.70;11.82;;;;;;;8.57;81.22;102261.34;4823713;29;20026;-67
2022/05/01 02:03:13;;;;;;;17.10;12.65;;;;;;;8.50;81.50;102263.94;4821843;29;20065;-66
2022/05/01 02:05:39;;;;;;;14.68;12.82;;;;;;;8.45;81.53;102263.59;4826138;29;20042;-66
2022/05/01 02:08:08;;;;;;;16.30;12.85;;;;;;;8.45;81.44;102266.31;4825700;29;20482;-66
2022/05/01 02:10:35;;;;;;;15.95;12.70;;;;;;;8.49;81.58;102259.53;4826101;29;20106;-67
2022/05/01 02:13:01;;;;;;;16.52;12.60;;;;;;;8.50;81.85;102258.53;4825826;29;20075;-66
2022/05/01 02:15:30;;;;;;;16.60;13.07;;;;;;;8.52;81.58;102261.88;4823930;29;20113;-67
2022/05/01 02:17:58;;;;;;;16.98;12.98;;;;;;;8.47;81.96;102251.63;4825643;29;20067;-67
2022/05/01 02:20:24;;;;;;;14.23;12.02;;;;;;;8.43;81.30;102250.25;4825643;29;20479;-67
2022/05/01 02:22:49;;;;;;;19.85;12.93;;;;;;;8.44;82.32;102256.50;4817884;29;20035;-66
2022/05/01 02:25:15;;;;;;;18.17;13.43;;;;;;;8.42;82.09;102255.84;4819878;29;20036;-66
2022/05/01 02:27:40;;;;;;;15.65;12.82;;;;;;;8.38;82.10;102252.66;4823792;29;20038;-66
2022/05/01 02:30:07;;;;;;;18.38;13.45;;;;;;;8.28;82.27;102250.16;4809123;29;20039;-66
2022/05/01 02:32:36;;;;;;;17.38;12.63;;;;;;;8.24;82.65;102239.91;4824093;29;20043;-67
2022/05/01 02:35:01;;;;;;;18.63;13.35;;;;;;;8.21;82.99;102241.06;4823590;29;20452;-66
2022/05/01 02:37:26;;;;;;;19.23;13.63;;;;;;;8.18;82.82;102237.91;4808514;29;20069;-66
2022/05/01 02:39:51;;;;;;;17.42;13.23;;;;;;;8.21;83.00;102224.91;4807310;29;20038;-66
2022/05/01 02:42:19;;;;;;;19.00;13.75;;;;;;;8.19;82.42;102232.34;4807747;29;20464;-67
2022/05/01 02:44:44;;;;;;;18.98;13.90;;;;;;;8.14;82.45;102229.34;4807460;29;20035;-66
2022/05/01 02:47:09;;;;;;;17.48;12.57;;;;;;;8.15;83.02;102233.69;4807142;29;20121;-66
2022/05/01 02:49:35;;;;;;;16.33;13.20;;;;;;;8.20;82.44;102227.78;4807066;29;20038;-66
2022/05/01 02:52:01;;;;;;;17.88;13.45;;;;;;;8.23;82.99;102232.81;4814529;29;20411;-67
2022/05/01 02:54:27;;;;;;;16.60;13.55;;;;;;;8.18;83.27;102230.66;4817726;29;20106;-66
2022/05/01 02:56:53;;;;;;;15.82;13.13;;;;;;;8.21;83.19;102237.56;4806957;29;20429;-67
2022/05/01 02:59:18;;;;;;;17.42;14.15;;;;;;;8.15;82.46;102229.16;4806795;29;20118;-67
2022/05/01 03:01:44;;;;;;;16.63;13.55;;;;;;;8.14;83.19;102234.72;4805003;29;20039;-66
2022/05/01 03:04:10;;;;;;;17.33;13.38;;;;;;;8.07;83.11;102229.19;4790451;29;20062;-66
2022/05/01 03:06:35;;;;;;;20.30;14.13;;;;;;;8.02;83.33;102226.19;4805704;29;20055;-66
2022/05/01 03:09:01;;;;;;;18.33;13.38;;;;;;;8.04;83.07;102224.13;4817067;29;20077;-67
2022/05/01 03:11:27;;;;;;;20.73;14.20;;;;;;;8.02;83.58;102225.31;4824704;29;20042;-66
2022/05/01 03:13:52;;;;;;;18.27;13.80;;;;;;;7.96;83.95;102226.88;4809556;29;20461;-67
2022/05/01 03:16:18;;;;;;;20.90;14.38;;;;;;;7.89;84.25;102228.56;4807487;29;20039;-66
2022/05/01 03:24:11;;;;;;;19.83;14.55;;;;;;;7.88;84.27;102224.19;4792599;29;20419;-66
2022/05/01 03:26:38;;;;;;;21.73;15.13;;;;;;;7.92;84.08;102218.28;4822930;29;20126;-66
2022/05/01 03:29:03;;;;;;;20.77;14.75;;;;;;;7.99;83.77;102211.19;4824594;29;20094;-66
2022/05/01 03:31:28;;;;;;;17.83;14.25;;;;;;;8.02;83.61;102209.13;4823823;29;20030;-66
2022/05/01 03:33:54;;;;;;;19.23;14.77;;;;;;;7.95;83.68;102203.63;4824345;29;20069;-66
2022/05/01 03:36:20;;;;;;;22.42;15.10;;;;;;;7.94;83.44;102210.00;4822180;29;20030;-66
2022/05/01 03:38:45;;;;;;;19.00;14.38;;;;;;;7.96;83.86;102206.13;4806226;29;20045;-66
2022/05/01 03:41:14;;;;;;;19.33;15.02;;;;;;;7.89;83.67;102202.44;4806279;29;20034;-66
2022/05/01 03:43:40;;;;;;;19.38;15.60;;;;;;;7.87;84.21;102203.66;4790309;29;20043;-67
2022/05/01 03:46:05;;;;;;;20.85;15.93;;;;;;;7.83;83.86;102203.16;4806189;29;20048;-66
2022/05/01 03:48:31;;;;;;;20.88;15.52;;;;;;;7.81;84.90;102205.19;4806217;29;20046;-67
2022/05/01 03:50:58;;;;;;;20.95;15.32;;;;;;;7.79;84.67;102205.34;4793909;29;20379;-66
2022/05/01 03:53:23;;;;;;;20.55;16.23;;;;;;;7.79;84.21;102210.75;4824630;29;20117;-67
2022/05/01 03:55:49;;;;;;;21.85;15.85;;;;;;;7.76;83.88;102210.25;4824232;29;20117;-66
2022/05/01 03:58:15;;;;;;;21.33;15.55;;;;;;;7.70;84.64;102211.78;4824187;29;20087;-66
2022/05/01 04:00:44;;;;;;;21.33;16.48;;;;;;;7.69;84.73;102206.56;4820497;29;20044;-66
2022/05/01 04:03:09;;;;;;;19.50;16.60;;;;;;;7.60;84.77;102211.97;4807775;29;20384;-67
2022/05/01 04:05:35;;;;;;;22.05;17.23;;;;;;;7.54;85.60;102209.13;4805706;29;20035;-66
2022/05/01 04:08:00;;;;;;;21.88;16.58;;;;;;;7.48;84.89;102207.13;4805566;29;20050;-66
2022/05/01 04:10:25;;;;;;;21.25;16.58;;;;;;;7.48;85.33;102207.97;4811318;29;20057;-67
2022/05/01 04:12:50;;;;;;;21.67;16.50;;;;;;;7.40;85.55;102210.69;4815730;29;20038;-66
2022/05/01 04:15:16;;;;;;;21.38;16.58;;;;;;;7.39;85.27;102208.97;4812102;29;20031;-67
2022/05/01 04:17:42;;;;;;;21.23;16.52;;;;;;;7.38;85.41;102218.94;4823764;29;20083;-67
2022/05/01 04:20:15;;;;;;;24.73;17.52;;;;;;;7.33;86.17;102212.34;4807168;29;20094;-66
2022/05/01 04:22:42;;;;;;;20.75;16.83;;;;;;;7.25;85.97;102211.34;4818733;29;20047;-66
2022/05/01 04:25:18;;;;;;;19.98;16.92;;;;;;;7.22;86.47;102208.16;4805410;29;20518;-67
2022/05/01 04:27:45;;;;;;;21.90;16.83;;;;;;;7.21;86.05;102207.31;4805796;29;20041;-66
2022/05/01 04:30:12;;;;;;;22.23;17.08;;;;;;;7.23;85.70;102210.69;4805343;29;20047;-66
2022/05/01 04:32:49;;;;;;;21.58;17.60;;;;;;;7.22;85.88;102209.00;4813032;29;20042;-66
2022/05/01 04:35:23;;;;;;;22.30;18.15;;;;;;;7.21;86.16;102211.84;4823693;29;20095;-66
2022/05/01 04:37:49;;;;;;;23.70;17.35;;;;;;;7.15;85.85;102207.97;4822293;29;20038;-66
2022/05/01 04:40:14;;;;;;;28.13;18.50;;;;;;;7.14;86.64;102209.00;4823656;29;20037;-67
2022/05/01 04:42:41;;;;;;;24.48;18.85;;;;;;;7.11;86.28;102212.03;4815859;29;20035;-66
2022/05/01 04:45:07;;;;;;;24.67;18.98;;;;;;;7.12;86.44;102202.94;4805428;29;20038;-67
2022/05/01 04:47:33;;;;;;;25.95;18.95;;;;;;;7.10;86.42;102204.97;4789102;29;20054;-66
2022/05/01 04:49:58;;;;;;;22.50;18.60;;;;;;;7.08;85.75;102210.53;4805210;29;20039;-67
2022/05/01 04:52:23;;;;;;;26.67;19.70;;;;;;;7.06;85.41;102211.69;4812645;29;20042;-66
2022/05/01 04:54:49;;;;;;;25.88;19.77;;;;;;;7.01;86.13;102211.38;4823383;29;20035;-66
2022/05/01 04:57:15;;;;;;;25.90;19.85;;;;;;;6.91;86.85;102212.38;4823168;29;20041;-67
2022/05/01 04:59:41;;;;;;;27.77;19.50;;;;;;;6.94;87.07;102221.13;4823617;29;20078;-66
2022/05/01 05:02:06;;;;;;;24.58;20.42;;;;;;;6.89;86.38;102218.91;4819566;29;20061;-66
2022/05/01 05:04:31;;;;;;;33.53;22.00;;;;;;;6.91;86.20;102230.34;4823616;29;20121;-66
2022/05/01 05:06:57;;;;;;;26.23;20.52;;;;;;;6.91;86.65;102220.44;4823291;29;20038;-66
2022/05/01 05:12:07;;;;;;;25.45;21.23;;;;;;;6.85;86.80;102229.16;4815903;29;20046;-66
2022/05/01 05:14:33;;;;;;;27.65;20.80;;;;;;;6.82;86.87;102217.91;4805286;29;20113;-66
2022/05/01 05:16:58;;;;;;;25.50;21.02;;;;;;;6.86;87.13;102219.25;4810884;29;20042;-66
2022/05/01 05:19:23;;;;;;;27.10;20.77;;;;;;;6.87;86.81;102221.78;4823032;29;20055;-66
2022/05/01 05:21:49;;;;;;;25.88;21.42;;;;;;;6.91;86.80;102220.44;4823163;29;20061;-66
2022/05/01 05:24:14;;;;;;;27.67;21.23;;;;;;;6.90;87.19;102224.13;4823437;29;20060;-66
2022/05/01 05:26:39;;;;;;;24.45;20.77;;;;;;;6.92;87.13;102229.34;4823068;29;20479;-66
2022/05/01 05:29:04;;;;;;;29.83;21.92;;;;;;;6.95;87.25;102234.41;4823128;29;20033;-66
2022/05/01 05:31:30;;;;;;;27.30;22.10;;;;;;;6.94;86.99;102231.88;4826503;29;20444;-66
2022/05/01 05:33:55;;;;;;;28.60;21.92;;;;;;;6.96;86.98;102236.09;4817319;29;20034;-67
2022/05/01 05:36:20;;;;;;;25.10;21.30;;;;;;;7.04;87.45;102240.63;4808251;29;20035;-67
2022/05/01 05:38:45;;;;;;;27.38;20.75;;;;;;;7.00;87.08;102237.41;4808761;29;20049;-66
2022/05/01 05:41:11;;;;;;;33.03;21.77;;;;;;;7.03;87.13;102239.78;4809286;29;20031;-66
2022/05/01 05:43:36;;;;;;;28.80;22.08;;;;;;;7.05;86.90;102240.47;4793174;29;20405;-66
2022/05/01 05:46:01;;;;;;;30.85;23.10;;;;;;;6.98;87.29;102242.13;4808260;29;20038;-66
2022/05/01 05:48:27;;;;;;;26.63;21.85;;;;;;;6.99;87.45;102245.66;4807993;29;20083;-67
2022/05/01 05:50:52;;;;;;;29.77;22.58;;;;;;;7.01;87.79;102249.03;4809465;29;20027;-66
2022/05/01 05:53:17;;;;;;;26.55;21.25;;;;;;;7.06;87.86;102244.81;4825842;29;20038;-66
2022/05/01 05:55:45;;;;;;;28.08;21.40;;;;;;;7.09;87.51;102249.03;4825991;29;20037;-67
2022/05/01 05:58:10;;;;;;;27.92;21.88;;;;;;;7.13;88.01;102247.69;4825957;29;20045;-66
2022/05/01 06:00:35;;;;;;;26.77;22.15;;;;;;;7.16;86.65;102252.75;4822435;29;20038;-66
2022/05/01 06:03:01;;;;;;;25.40;21.45;;;;;;;7.20;86.89;102247.84;4808036;29;20368;-67
2022/05/01 06:05:27;;;;;;;29.15;22.75;;;;;;;7.16;86.91;102252.75;4803415;29;20031;-67
2022/05/01 06:07:52;;;;;;;27.48;22.17;;;;;;;7.22;86.92;102244.00;4789975;30;20035;-66
2022/05/01 06:10:17;;;;;;;29.70;22.38;;;;;;;7.20;87.33;102243.34;4789697;29;20507;-66
2022/05/01 06:12:44;;;;;;;28.13;21.48;;;;;;;7.23;88.08;102245.69;4806857;29;20046;-66
2022/05/01 06:15:09;;;;;;;29.92;24.05;;;;;;;7.29;87.83;102246.84;4807758;29;20042;-66
2022/05/01 06:17:35;;;;;;;29.30;22.35;;;;;;;7.35;88.11;102256.09;4807105;29;20047;-66
2022/05/01 06:20:00;;;;;;;29.98;22.85;;;;;;;7.43;88.74;102250.72;4807744;29;20446;-66
2022/05/01 06:22:25;;;;;;;29.42;23.08;;;;;;;7.52;88.67;102255.09;4807510;29;20046;-67
2022/05/01 06:24:51;;;;;;;27.75;22.33;;;;;;;7.62;88.09;102253.06;4791556;29;20460;-66
2022/05/01 06:27:17;;;;;;;28.20;22.73;;;;;;;7.71;87.07;102251.19;4807447;29;20042;-66
2022/05/01 06:29:44;;;;;;;28.42;23.00;;;;;;;7.82;87.61;102250.00;4807544;29;20039;-66
2022/05/01 06:32:10;;;;;;;31.42;23.45;;;;;;;7.88;87.35;102246.59;4821373;29;20050;-66
2022/05/01 06:34:36;;;;;;;29.70;22.27;;;;;;;8.02;86.97;102250.44;4818389;29;20042;-66
2022/05/01 06:37:02;;;;;;;27.52;22.75;;;;;;;8.13;86.65;102249.22;4807191;29;20099;-66
2022/05/01 06:39:28;;;;;;;27.45;21.85;;;;;;;8.22;86.67;102253.56;4807572;29;20043;-66
2022/05/01 06:41:54;;;;;;;26.30;21.35;;;;;;;8.33;86.40;102255.88;4809334;29;20491;-66
2022/05/01 06:44:19;;;;;;;27.58;21.27;;;;;;;8.42;85.86;102255.84;4825041;29;20110;-67
2022/05/01 06:46:44;;;;;;;25.67;21.90;;;;;;;8.46;85.00;102259.91;4825255;29;20117;-68
2022/05/01 06:49:10;;;;;;;28.20;22.38;;;;;;;8.57;85.65;102255.97;4793493;29;20050;-66
2022/05/01 06:51:35;;;;;;;27.95;21.38;;;;;;;8.69;85.35;102266.16;4813931;29;20043;-67
2022/05/01 06:54:02;;;;;;;27.45;21.27;;;;;;;8.79;84.15;102259.72;4790910;29;20047;-67
2022/05/01 06:56:27;;;;;;;27.13;20.45;;;;;;;8.83;83.73;102259.19;4813913;29;20046;-66
2022/05/01 06:58:53;;;;;;;26.85;20.88;;;;;;;8.86;83.26;102260.66;4825554;29;20042;-66
2022/05/01 07:01:18;;;;;;;26.90;21.88;;;;;;;8.92;83.76;102259.94;4816669;29;20067;-68
2022/05/01 07:03:46;;;;;;;23.63;19.90;;;;;;;8.91;83.51;102249.31;4807149;29;20039;-69
2022/05/01 07:06:11;;;;;;;26.77;19.88;;;;;;;8.99;82.19;102258.22;4820377;29;20030;-67
2022/05/01 07:08:37;;;;;;;26.00;18.90;;;;;;;9.02;81.38;102255.16;4812993;29;20084;-65
2022/05/01 07:11:02;;;;;;;25.10;18.77;;;;;;;9.05;81.83;102257.50;4806399;29;20031;-66
2022/05/01 07:13:27;;;;;;;24.30;19.67;;;;;;;9.13;81.61;102258.47;4806839;29;20042;-67
2022/05/01 07:15:52;;;;;;;23.65;18.60;;;;;;;9.18;82.22;102259.59;4790545;29;20062;-67
2022/05/01 07:18:18;;;;;;;25.27;20.38;;;;;;;9.25;83.26;102258.88;4806706;29;20123;-67
2022/05/01 07:20:45;;;;;;;25.88;19.80;;;;;;;9.24;82.30;102266.16;4793365;29;20129;-67
2022/05/01 07:23:10;;;;;;;25.80;20.45;;;;;;;9.25;82.74;102266.97;4824276;29;20046;-67
2022/05/01 07:25:36;;;;;;;28.85;19.17;;;;;;;9.27;82.19;102265.78;4808560;29;20095;-67
2022/05/01 07:28:01;;;;;;;23.90;18.85;;;;;;;9.25;81.65;102262.41;4824249;29;20102;-70
2022/05/01 07:30:26;;;;;;;26.15;19.25;;;;;;;9.25;81.86;102264.28;4823627;29;20391;-67
2022/05/01 07:32:51;;;;;;;22.98;19.08;;;;;;;9.29;81.23;102262.91;4824577;29;20084;-67
2022/05/01 07:35:17;;;;;;;24.27;19.08;;;;;;;9.30;80.90;102267.25;4821575;29;20077;-67
2022/05/01 07:37:42;;;;;;;27.15;18.33;;;;;;;9.37;81.50;102274.44;4806481;29;20050;-68
2022/05/01 07:40:09;;;;;;;25.83;19.63;;;;;;;9.39;81.58;102272.44;4806196;29;20111;-68
2022/05/01 07:42:34;;;;;;;24.13;19.52;;;;;;;9.43;81.34;102272.06;4822866;29;20475;-72
2022/05/01 07:44:59;;;;;;;23.20;18.23;;;;;;;9.41;80.55;102264.13;4824354;29;20038;-67
2022/05/01 07:47:25;;;;;;;22.80;18.52;;;;;;;9.36;80.90;102270.09;4824412;29;20049;-70
2022/05/01 07:49:50;;;;;;;21.85;17.02;;;;;;;9.43;80.12;102270.19;4824231;29;20415;-67
2022/05/01 07:52:16;;;;;;;22.23;17.50;;;;;;;9.47;80.12;102267.97;4823479;29;20030;-70
2022/05/01 07:54:41;;;;;;;25.27;17.15;;;;;;;9.48;78.93;102273.19;4824222;29;20031;-74
2022/05/01 07:57:07;;;;;;;21.38;15.55;;;;;;;9.53;79.83;102268.06;4820371;29;20487;-68
2022/05/01 07:59:33;;;;;;;22.05;15.85;;;;;;;9.67;79.16;102266.41;4806197;29;20051;-68
2022/05/01 08:01:58;;;;;;;23.63;16.90;;;;;;;9.76;78.43;102256.38;4817738;29;20038;-72
2022/05/01 08:04:29;;;;;;;22.73;15.68;;;;;;;9.81;77.14;102263.91;4824242;29;20037;-68
2022/05/01 08:06:56;;;;;;;20.67;15.93;;;;;;;9.86;78.02;102259.66;4809003;29;20066;-68
2022/05/01 08:09:22;;;;;;;16.73;13.43;;;;;;;9.93;75.76;102257.03;4805715;29;20042;-68
2022/05/01 08:11:47;;;;;;;18.58;14.15;;;;;;;10.04;76.32;102264.69;4811913;29;20034;-75
2022/05/01 08:14:12;;;;;;;20.45;13.93;;;;;;;10.08;75.22;102255.19;4824023;29;20467;-68
2022/05/01 08:16:40;;;;;;;14.15;10.48;;;;;;;10.19;73.05;102261.97;4821628;29;20058;-68
2022/05/01 08:21:50;;;;;;;14.80;11.00;;;;;;;10.32;71.22;102249.66;4820487;29;20057;-68
2022/05/01 08:24:15;;;;;;;17.05;10.55;;;;;;;10.41;69.96;102259.38;4809677;29;20026;-67
2022/05/01 08:26:46;;;;;;;14.10;10.80;;;;;;;10.42;69.73;102255.63;4807328;29;20095;-68
2022/05/01 08:29:11;;;;;;;14.37;10.20;;;;;;;10.53;69.67;102246.19;4822002;29;20464;-69
2022/05/01 08:31:36;;;;;;;14.10;8.52;;;;;;;10.62;69.31;102253.16;4806031;29;20035;-69
2022/05/01 08:34:30;;;;;;;16.95;9.52;;;;;;;10.74;70.14;102254.34;4804885;29;20115;-69
2022/05/01 08:37:19;;;;;;;15.82;10.73;;;;;;;10.81;67.39;102252.53;4805002;29;20484;-67
2022/05/01 08:40:24;;;;;;;13.27;9.50;;;;;;;10.94;68.05;102249.13;4791279;29;20487;-68
2022/05/01 08:43:15;;;;;;;11.93;8.38;;;;;;;10.94;63.46;102249.13;4801220;29;20133;-68
2022/05/01 08:46:07;;;;;;;8.43;5.65;;;;;;;10.94;59.53;102251.00;4819263;29;20386;-69
2022/05/01 08:48:52;;;;;;;9.25;5.45;;;;;;;10.93;60.08;102252.88;4776154;29;20412;-67
2022/05/01 08:51:21;;;;;;;9.07;7.20;;;;;;;10.98;61.74;102257.72;4808458;29;20046;-68
2022/05/01 08:53:48;;;;;;;11.45;7.45;;;;;;;11.08;62.28;102244.69;4805193;29;20039;-68
2022/05/01 08:56:17;;;;;;;9.15;8.00;;;;;;;11.17;62.40;102253.50;4811139;29;20107;-70
2022/05/01 08:58:43;;;;;;;7.57;6.28;;;;;;;11.28;59.07;102249.44;4823701;29;20038;-68
2022/05/01 09:01:09;;;;;;;9.00;5.57;;;;;;;11.41;57.44;102243.28;4819845;29;20042;-71
2022/05/01 09:03:36;;;;;;;7.60;4.35;;;;;;;11.44;52.82;102246.44;4814628;29;20065;-68
2022/05/01 09:13:31;;;;;;;9.82;7.38;;;;;;;11.43;58.71;102241.19;4827592;29;20383;-67
2022/05/01 09:16:10;;;;;;;8.00;6.40;;;;;;;11.38;56.97;102249.09;4981480;24;20051;-67
2022/05/01 09:18:46;;;;;;;9.88;6.50;;;;;;;11.40;57.16;102238.88;4813178;29;20061;-67
2022/05/01 09:21:12;;;;;;;8.95;6.40;;;;;;;11.47;57.43;102239.78;4810671;29;20042;-67
2022/05/01 09:23:45;;;;;;;10.00;5.93;;;;;;;11.61;58.39;102246.13;4826870;29;20042;-71
2022/05/01 09:26:12;;;;;;;9.63;6.30;;;;;;;11.66;56.54;102240.97;4810417;29;20057;-68
2022/05/01 09:28:47;;;;;;;10.10;6.60;;;;;;;11.76;57.89;102246.88;4826207;29;20042;-67
2022/05/01 09:31:13;;;;;;;11.50;6.45;;;;;;;11.83;56.26;102241.50;4826049;29;20042;-67
2022/05/01 09:33:39;;;;;;;8.52;6.20;;;;;;;11.84;53.96;102249.44;4826374;29;20050;-72
2022/05/01 09:36:04;;;;;;;9.48;5.55;;;;;;;11.83;53.07;102250.47;4826810;29;20058;-69
2022/05/01 09:38:30;;;;;;;9.05;5.80;;;;;;;11.86;53.75;102250.06;4826421;29;20415;-67
2022/05/01 09:41:01;;;;;;;7.03;5.95;;;;;;;11.94;53.63;102253.69;4826629;29;20034;-71
2022/05/01 09:43:48;;;;;;;9.07;6.18;;;;;;;12.09;54.21;102251.69;4838757;24;20432;-69
2022/05/01 09:46:17;;;;;;;8.23;6.07;;;;;;;12.24;51.78;102243.41;4826416;29;20046;-70
2022/05/01 09:48:56;;;;;;;9.77;5.95;;;;;;;12.34;52.16;102243.03;4826630;29;20054;-67
2022/05/01 09:51:22;;;;;;;7.20;5.72;;;;;;;12.48;51.07;102238.50;4826127;29;20073;-66
2022/05/01 09:53:47;;;;;;;8.10;5.90;;;;;;;12.65;51.96;102238.97;4825940;29;20469;-70
2022/05/01 09:56:13;;;;;;;7.38;5.97;;;;;;;12.68;49.91;102241.25;4825986;29;20034;-67
2022/05/01 10:02:04;;;;;;;;;;;;;;;12.98;55.28;102240.91;4917769;24;20131;-68
2022/05/01 10:04:37;;;;;;;10.95;6.13;;;;;;;12.82;50.14;102245.69;4864017;24;20015;-70
2022/05/01 10:09:54;;;;;;;8.27;6.18;;;;;;;12.78;50.49;102239.00;4867476;24;20066;-68
2022/05/01 10:12:23;;;;;;;9.05;6.18;;;;;;;12.70;51.75;102231.88;5005699;24;20092;-74
2022/05/01 10:15:36;;;;;;;10.05;6.20;;;;;;;12.79;51.87;102237.09;4969875;24;20585;-71
2022/05/01 10:18:02;;;;;;;9.70;6.50;;;;;;;12.76;48.44;102235.66;4764016;29;20063;-72
2022/05/01 10:20:28;;;;;;;9.15;6.45;;;;;;;12.79;50.39;102237.97;4789747;30;20161;-70
2022/05/01 10:22:55;;;;;;;10.32;6.18;;;;;;;12.90;51.77;102226.47;4789226;30;20039;-69
2022/05/01 10:25:23;;;;;;;10.32;6.43;;;;;;;13.07;50.25;102220.66;4789312;30;20042;-69
2022/05/01 10:27:54;;;;;;;9.50;6.65;;;;;;;13.10;49.12;102218.38;4789223;30;20038;-71
2022/05/01 10:33:31;;;;;;;8.05;6.13;;;;;;;13.08;49.08;102220.44;4789153;30;20431;-72
2022/05/01 10:36:28;;;;;;;9.02;5.82;;;;;;;13.09;50.27;102213.13;4789200;30;20027;-74
2022/05/01 10:39:02;;;;;;;7.90;6.28;;;;;;;13.14;50.39;102198.91;4788485;30;20096;-71
2022/05/01 10:41:29;;;;;;;8.65;6.18;;;;;;;13.23;49.85;102217.50;4788960;30;20023;-73
2022/05/01 10:43:57;;;;;;;8.05;5.85;;;;;;;13.30;49.65;102215.63;4789044;30;20043;-70
2022/05/01 10:46:22;;;;;;;7.80;6.10;;;;;;;13.30;48.61;102204.75;4788865;30;20039;-70
2022/05/01 10:48:50;;;;;;;7.67;6.03;;;;;;;13.37;49.98;102201.22;4789267;30;20467;-69
2022/05/01 10:52:19;;;;;;;9.95;6.25;;;;;;;13.41;50.81;102206.03;4788772;30;20035;-70
2022/05/01 10:58:31;;;;;;;8.43;6.10;;;;;;;13.40;50.41;102203.53;4788733;30;20398;-70
2022/05/01 11:01:50;;;;;;;7.35;6.15;;;;;;;13.44;50.64;102194.75;4787594;30;20059;-70
2022/05/01 11:04:26;;;;;;;10.18;6.57;;;;;;;13.49;49.41;102191.38;4785899;30;20114;-69
2022/05/01 11:06:56;;;;;;;11.25;6.28;;;;;;;13.45;48.66;102196.41;4788288;30;20476;-69
2022/05/01 11:13:02;;;;;;;12.85;5.78;;;;;;;13.37;47.90;102191.19;4786344;30;20054;-69
2022/05/01 11:15:45;;;;;;;7.05;6.00;;;;;;;13.22;47.51;102180.50;4785101;30;20055;-69
2022/05/01 11:18:29;;;;;;;10.13;6.40;;;;;;;13.32;48.34;102185.53;4781770;30;20455;-70
2022/05/01 11:24:42;;;;;;;10.10;6.32;;;;;;;13.60;49.07;102176.28;4787362;30;20126;-69
2022/05/01 11:27:10;;;;;;;11.30;5.70;;;;;;;13.69;47.42;102174.19;4769771;30;20070;-68
2022/05/01 11:29:36;;;;;;;9.55;6.07;;;;;;;13.74;47.26;102172.50;4769179;30;20071;-69
2022/05/01 11:32:22;;;;;;;8.70;5.95;;;;;;;13.77;47.25;102163.91;4770594;30;20061;-69
2022/05/01 11:34:50;;;;;;;7.88;5.68;;;;;;;13.75;45.96;102165.16;4772669;30;20130;-69
2022/05/01 11:37:15;;;;;;;7.95;6.07;;;;;;;13.78;46.89;102156.56;4787955;30;20035;-69
2022/05/01 11:39:47;;;;;;;7.65;5.95;;;;;;;13.87;47.42;102160.72;4772436;30;20039;-69
2022/05/01 11:42:25;;;;;;;9.20;5.80;;;;;;;13.89;47.88;102161.38;4788530;30;20035;-69
2022/05/01 11:44:56;;;;;;;9.55;5.68;;;;;;;13.79;47.20;102160.97;4787951;30;20038;-68
2022/05/01 11:47:24;;;;;;;9.30;6.00;;;;;;;13.57;45.14;102161.25;4787720;30;20031;-69
2022/05/01 11:49:52;;;;;;;13.23;5.80;;;;;;;13.42;45.23;102157.91;4788169;30;20540;-69
2022/05/01 11:52:19;;;;;;;8.50;5.80;;;;;;;13.34;45.83;102150.81;4788250;30;20042;-68
2022/05/01 11:54:50;;;;;;;10.25;6.35;;;;;;;13.24;46.28;102145.81;4788328;30;20514;-69
2022/05/01 12:02:58;;;;;;;9.02;6.10;;;;;;;13.49;46.84;102141.59;4767762;30;20094;-68
2022/05/01 12:05:23;;;;;;;11.95;6.47;;;;;;;13.56;46.12;102147.88;4787929;30;20097;-68
2022/05/01 12:07:55;;;;;;;12.00;6.35;;;;;;;13.57;45.55;102136.78;4787619;30;20047;-69
2022/05/01 12:10:20;;;;;;;7.93;6.03;;;;;;;13.62;44.94;102136.97;4787855;30;20040;-68
2022/05/01 12:12:45;;;;;;;8.77;6.03;;;;;;;13.62;44.98;102136.13;4788092;30;20035;-68
2022/05/01 12:15:10;;;;;;;9.40;5.72;;;;;;;13.73;45.87;102130.00;4771452;30;20070;-68
2022/05/01 12:17:40;;;;;;;8.43;6.00;;;;;;;13.73;44.89;102126.47;4772709;30;20369;-68